createdAt,value
2022-12-14T00:00:04.892Z,81.45
2022-12-14T00:02:31.550Z,81.29
2022-12-14T00:04:59.547Z,81.31
2022-12-14T00:07:26.084Z,81.44
2022-12-14T00:09:52.592Z,81.18
2022-12-14T00:12:19.148Z,81.29
2022-12-14T00:14:46.434Z,81.21
2022-12-14T00:17:12.945Z,81.44
2022-12-14T00:19:39.449Z,81.32
2022-12-14T00:22:07.369Z,81.45
2022-12-14T00:24:34.023Z,81.14
2022-12-14T00:27:00.563Z,81.56
2022-12-14T00:29:27.191Z,81.56
2022-12-14T00:31:53.719Z,81.46
2022-12-14T00:34:20.237Z,81.34
2022-12-14T00:36:46.826Z,81.48
2022-12-14T00:39:14.757Z,81.13
2022-12-14T00:41:41.369Z,81.34
2022-12-14T00:44:07.934Z,81.16
2022-12-14T00:46:34.554Z,81.24
2022-12-14T00:49:01.180Z,81.26
2022-12-14T00:51:27.818Z,81.33
2022-12-14T00:53:54.567Z,81.25
2022-12-14T00:56:22.489Z,81.27
2022-12-14T00:58:53.049Z,81.38
2022-12-14T01:01:20.607Z,81.17
2022-12-14T01:03:47.389Z,81.21
2022-12-14T01:06:15.876Z,81.27
2022-12-14T01:08:42.489Z,81.18
2022-12-14T01:11:10.403Z,81.04
2022-12-14T01:13:39.314Z,79.18
2022-12-14T01:16:07.706Z,81.27
2022-12-14T01:18:35.146Z,81.28
2022-12-14T01:21:10.538Z,77.40
2022-12-14T01:23:37.375Z,80.82
2022-12-14T01:26:03.971Z,82.67
2022-12-14T01:28:31.053Z,81.56
2022-12-14T01:30:58.979Z,81.42
2022-12-14T01:33:25.934Z,81.08
2022-12-14T01:35:52.866Z,81.13
2022-12-14T01:38:19.417Z,79.77
2022-12-14T01:40:45.962Z,75.82
2022-12-14T01:43:13.804Z,77.68
2022-12-14T01:45:42.563Z,78.24
2022-12-14T01:48:13.513Z,83.93
2022-12-14T01:50:45.438Z,82.35
2022-12-14T01:53:16.317Z,81.99
2022-12-14T01:55:48.831Z,81.72
2022-12-14T01:58:18.796Z,81.44
2022-12-14T02:00:45.458Z,81.46
2022-12-14T02:03:17.536Z,81.39
2022-12-14T02:05:48.307Z,81.45
2022-12-14T02:12:08.241Z,81.56
2022-12-14T02:14:34.962Z,81.45
2022-12-14T02:17:01.953Z,81.02
2022-12-14T02:19:30.487Z,76.10
2022-12-14T02:22:20.089Z,82.81
2022-12-14T02:25:18.130Z,81.48
2022-12-14T02:28:02.709Z,77.60
2022-12-14T02:30:34.946Z,81.83
2022-12-14T02:33:25.332Z,81.78
2022-12-14T02:35:58.694Z,76.51
2022-12-14T02:38:42.790Z,81.57
2022-12-14T02:41:16.881Z,81.40
2022-12-14T02:43:50.918Z,81.39
2022-12-14T02:46:23.319Z,81.31
2022-12-14T02:48:57.534Z,81.20
2022-12-14T02:51:30.485Z,81.32
2022-12-14T02:54:02.367Z,81.23
2022-12-14T02:56:33.772Z,81.41
2022-12-14T02:59:01.634Z,81.46
2022-12-14T03:01:30.359Z,76.25
2022-12-14T03:03:57.070Z,82.00
2022-12-14T03:06:28.198Z,81.66
2022-12-14T03:08:58.309Z,81.40
2022-12-14T03:11:34.731Z,81.48
2022-12-14T03:14:08.223Z,81.03
2022-12-14T03:16:41.538Z,81.17
2022-12-14T03:19:14.871Z,80.97
2022-12-14T03:21:47.257Z,81.21
2022-12-14T03:24:19.392Z,81.19
2022-12-14T03:26:52.445Z,81.18
2022-12-14T03:29:22.894Z,81.09
2022-12-14T03:31:54.714Z,80.30
2022-12-14T03:34:27.863Z,81.40
2022-12-14T03:36:59.399Z,81.28
2022-12-14T03:39:30.498Z,81.72
2022-12-14T03:42:04.909Z,81.13
2022-12-14T03:44:49.154Z,81.21
2022-12-14T03:47:38.509Z,81.42
2022-12-14T03:50:09.023Z,81.31
2022-12-14T03:52:40.348Z,81.46
2022-12-14T03:55:16.908Z,77.15
2022-12-14T03:57:58.726Z,79.72
2022-12-14T04:00:27.415Z,78.68
2022-12-14T04:03:08.251Z,82.94
2022-12-14T04:05:48.536Z,82.34
2022-12-14T04:08:22.806Z,81.75
2022-12-14T04:11:11.001Z,81.48
2022-12-14T04:14:00.969Z,81.49
2022-12-14T04:16:51.994Z,81.51
2022-12-14T04:19:23.615Z,81.19
2022-12-14T04:21:54.950Z,81.33
2022-12-14T04:24:45.154Z,81.22
2022-12-14T04:27:17.878Z,81.08
2022-12-14T04:29:57.946Z,81.52
2022-12-14T04:32:31.357Z,80.79
2022-12-14T04:35:04.110Z,81.26
2022-12-14T04:37:33.608Z,78.48
2022-12-14T04:40:05.847Z,81.53
2022-12-14T04:42:35.826Z,81.45
2022-12-14T04:45:08.087Z,82.33
2022-12-14T04:47:40.996Z,82.02
2022-12-14T04:50:15.157Z,81.52
2022-12-14T04:52:46.375Z,81.66
2022-12-14T04:55:22.686Z,81.53
2022-12-14T04:57:55.240Z,81.22
2022-12-14T05:00:22.140Z,81.31
2022-12-14T05:03:23.184Z,81.36
2022-12-14T05:05:59.018Z,78.11
2022-12-14T05:08:41.899Z,82.09
2022-12-14T05:11:50.082Z,78.36
2022-12-14T05:14:06.787Z,82.17
2022-12-14T05:16:33.441Z,81.71
2022-12-14T05:18:59.980Z,81.35
2022-12-14T05:21:47.088Z,79.27
2022-12-14T05:24:14.396Z,79.93
2022-12-14T05:26:41.380Z,82.32
2022-12-14T05:29:08.285Z,81.21
2022-12-14T05:31:34.889Z,83.58
2022-12-14T05:34:01.428Z,82.38
2022-12-14T05:36:29.511Z,81.33
2022-12-14T05:38:56.099Z,81.42
2022-12-14T05:41:22.705Z,82.17
2022-12-14T05:43:49.308Z,79.46
2022-12-14T05:46:16.040Z,82.82
2022-12-14T05:48:47.440Z,82.07
2022-12-14T05:51:15.831Z,81.98
2022-12-14T05:53:43.937Z,82.18
2022-12-14T05:56:11.840Z,82.97
2022-12-14T05:58:38.938Z,82.72
2022-12-14T06:01:07.585Z,83.01
2022-12-14T06:03:34.345Z,82.07
2022-12-14T06:06:02.443Z,82.16
2022-12-14T06:08:32.194Z,81.80
2022-12-14T06:11:03.095Z,82.79
2022-12-14T06:13:30.041Z,81.94
2022-12-14T06:16:07.338Z,82.11
2022-12-14T06:18:33.906Z,82.07
2022-12-14T06:21:00.942Z,80.01
2022-12-14T06:23:28.209Z,82.03
2022-12-14T06:25:55.806Z,82.26
2022-12-14T06:28:24.085Z,82.08
2022-12-14T06:30:50.658Z,83.27
2022-12-14T06:33:17.275Z,83.12
2022-12-14T06:35:44.877Z,81.97
2022-12-14T06:38:11.955Z,84.22
2022-12-14T06:40:38.522Z,83.14
2022-12-14T06:43:05.274Z,82.48
2022-12-14T06:45:33.470Z,82.27
2022-12-14T06:48:00.036Z,82.10
2022-12-14T06:50:30.223Z,81.31
2022-12-14T06:52:57.123Z,82.36
2022-12-14T06:55:24.845Z,82.35
2022-12-14T06:57:51.851Z,82.36
2022-12-14T07:00:18.899Z,81.06
2022-12-14T07:02:47.350Z,82.16
2022-12-14T07:05:14.582Z,82.22
2022-12-14T07:07:41.666Z,82.32
2022-12-14T07:10:10.185Z,82.15
2022-12-14T07:12:37.102Z,81.93
2022-12-14T07:15:04.307Z,82.12
2022-12-14T07:17:30.883Z,81.90
2022-12-14T07:19:58.834Z,82.16
2022-12-14T07:22:25.455Z,81.96
2022-12-14T07:24:52.008Z,83.56
2022-12-14T07:27:18.949Z,82.23
2022-12-14T07:29:45.601Z,85.07
2022-12-14T07:32:12.169Z,83.13
2022-12-14T07:34:38.713Z,82.68
2022-12-14T07:37:06.650Z,85.98
2022-12-14T07:39:33.210Z,86.91
2022-12-14T07:42:00.041Z,83.61
2022-12-14T07:44:26.594Z,82.97
2022-12-14T07:46:53.436Z,83.21
2022-12-14T07:49:20.404Z,82.88
2022-12-14T07:51:47.244Z,83.40
2022-12-14T07:54:15.142Z,85.45
2022-12-14T07:56:43.287Z,83.93
2022-12-14T07:59:13.023Z,84.03
2022-12-14T08:01:39.531Z,83.09
2022-12-14T08:04:07.925Z,88.29
2022-12-14T08:06:35.577Z,84.68
2022-12-14T08:09:02.441Z,87.95
2022-12-14T08:11:30.387Z,84.04
2022-12-14T08:13:58.519Z,83.32
2022-12-14T08:16:26.302Z,82.95
2022-12-14T08:18:54.029Z,83.07
2022-12-14T08:21:22.117Z,82.83
2022-12-14T08:23:49.658Z,82.62
2022-12-14T08:26:17.295Z,82.85
2022-12-14T08:28:45.790Z,83.03
2022-12-14T08:31:16.103Z,82.48
2022-12-14T08:33:44.674Z,82.37
2022-12-14T08:36:14.088Z,86.58
2022-12-14T08:38:41.870Z,86.14
2022-12-14T08:41:10.394Z,83.17
2022-12-14T08:43:37.994Z,87.02
2022-12-14T08:46:07.190Z,88.70
2022-12-14T08:48:33.975Z,83.96
2022-12-14T08:51:04.512Z,89.13
2022-12-14T08:53:31.633Z,88.76
2022-12-14T08:55:59.493Z,84.88
2022-12-14T08:58:26.231Z,82.48
2022-12-14T09:01:00.355Z,82.94
2022-12-14T09:03:28.803Z,84.42
2022-12-14T09:05:55.686Z,84.92
2022-12-14T09:08:22.489Z,82.61
2022-12-14T09:10:50.436Z,82.22
2022-12-14T09:13:17.022Z,82.99
2022-12-14T09:15:43.882Z,82.26
2022-12-14T09:18:10.634Z,82.52
2022-12-14T09:20:38.547Z,82.39
2022-12-14T09:23:05.116Z,82.94
2022-12-14T09:25:31.686Z,87.71
2022-12-14T09:27:58.250Z,82.04
2022-12-14T09:30:26.998Z,82.20
2022-12-14T09:32:53.754Z,82.49
2022-12-14T09:35:20.352Z,82.91
2022-12-14T09:37:48.335Z,82.42
2022-12-14T09:40:15.060Z,84.47
2022-12-14T09:42:53.544Z,84.58
2022-12-14T09:45:25.232Z,84.06
2022-12-14T09:47:57.926Z,82.71
2022-12-14T09:50:25.266Z,82.35
2022-12-14T09:52:55.380Z,82.13
2022-12-14T09:55:26.351Z,87.52
2022-12-14T09:57:59.309Z,81.75
2022-12-14T10:00:33.710Z,81.83
2022-12-14T10:03:21.007Z,82.29
2022-12-14T10:06:19.868Z,87.97
2022-12-14T10:08:55.132Z,81.48
2022-12-14T10:11:31.468Z,81.80
2022-12-14T10:14:08.692Z,82.31
2022-12-14T10:16:49.954Z,85.37
2022-12-14T10:19:28.776Z,82.49
2022-12-14T10:21:59.779Z,82.25
2022-12-14T10:24:34.050Z,82.87
2022-12-14T10:27:01.912Z,84.73
2022-12-14T10:29:33.092Z,82.82
2022-12-14T10:32:19.370Z,82.19
2022-12-14T10:34:46.151Z,82.67
2022-12-14T10:37:23.523Z,82.22
2022-12-14T10:40:07.489Z,82.48
2022-12-14T10:42:49.503Z,83.28
2022-12-14T10:45:43.078Z,87.78
2022-12-14T10:48:37.176Z,89.48
2022-12-14T10:51:08.152Z,86.33
2022-12-14T10:53:41.044Z,82.80
2022-12-14T10:56:14.526Z,82.67
2022-12-14T10:58:41.217Z,90.70
2022-12-14T11:01:11.935Z,87.65
2022-12-14T11:03:39.662Z,90.38
2022-12-14T11:06:14.408Z,84.31
2022-12-14T11:08:43.764Z,87.59
2022-12-14T11:11:19.428Z,83.25
2022-12-14T11:13:51.280Z,86.07
2022-12-14T11:16:27.668Z,83.25
2022-12-14T11:18:59.323Z,88.78
2022-12-14T11:21:30.467Z,83.01
2022-12-14T11:23:57.045Z,87.92
2022-12-14T11:26:29.058Z,88.03
2022-12-14T11:28:57.947Z,83.15
2022-12-14T11:31:32.216Z,83.05
2022-12-14T11:34:00.244Z,83.23
2022-12-14T11:36:30.802Z,82.78
2022-12-14T11:38:59.439Z,88.43
2022-12-14T11:41:32.306Z,83.32
2022-12-14T11:44:20.536Z,84.15
2022-12-14T11:46:52.167Z,83.20
2022-12-14T11:49:23.280Z,83.52
2022-12-14T11:51:59.408Z,83.51
2022-12-14T11:54:26.369Z,83.60
2022-12-14T11:57:01.027Z,83.62
2022-12-14T11:59:32.391Z,84.03
2022-12-14T12:02:09.328Z,83.44
2022-12-14T12:04:45.174Z,88.50
2022-12-14T12:07:14.592Z,82.88
2022-12-14T12:09:41.868Z,86.87
2022-12-14T12:12:17.994Z,83.09
2022-12-14T12:14:47.758Z,89.08
2022-12-14T12:17:17.903Z,88.23
2022-12-14T12:19:48.116Z,84.61
2022-12-14T12:22:15.953Z,87.54
2022-12-14T12:25:16.340Z,83.29
2022-12-14T12:27:38.475Z,83.46
2022-12-14T12:30:08.304Z,82.82
2022-12-14T12:32:37.249Z,82.74
2022-12-14T12:35:12.314Z,83.17
2022-12-14T12:37:43.569Z,87.98
2022-12-14T12:40:17.376Z,83.47
2022-12-14T12:42:49.954Z,83.35
2022-12-14T12:45:24.285Z,83.19
2022-12-14T12:47:54.800Z,83.36
2022-12-14T12:50:24.361Z,83.31
2022-12-14T12:53:03.177Z,83.23
2022-12-14T12:55:34.497Z,87.95
2022-12-14T12:58:04.821Z,86.66
2022-12-14T13:00:32.663Z,85.98
2022-12-14T13:03:02.296Z,82.67
2022-12-14T13:05:46.382Z,83.69
2022-12-14T13:08:22.221Z,87.55
2022-12-14T13:13:43.500Z,82.82
2022-12-14T13:16:20.411Z,88.51
2022-12-14T13:19:13.243Z,83.76
2022-12-14T13:21:44.402Z,83.29
2022-12-14T13:24:18.597Z,83.14
2022-12-14T13:27:05.564Z,83.59
2022-12-14T13:29:48.091Z,87.04
2022-12-14T13:32:36.822Z,87.95
2022-12-14T13:35:13.994Z,90.86
2022-12-14T13:37:56.487Z,84.71
2022-12-14T13:40:40.034Z,84.15
2022-12-14T13:43:18.278Z,83.29
2022-12-14T13:45:49.707Z,84.70
2022-12-14T13:48:23.391Z,90.23
2022-12-14T13:51:01.464Z,85.92
2022-12-14T13:53:34.875Z,84.22
2022-12-14T13:56:02.323Z,84.30
2022-12-14T13:58:37.311Z,89.38
2022-12-14T14:01:08.063Z,85.32
2022-12-14T14:03:47.256Z,88.22
2022-12-14T14:06:38.602Z,86.71
2022-12-14T14:09:57.560Z,86.49
2022-12-14T14:12:36.445Z,87.74
2022-12-14T14:15:22.722Z,90.03
2022-12-14T14:17:55.381Z,88.96
2022-12-14T14:20:40.588Z,87.96
2022-12-14T14:23:43.567Z,90.86
2022-12-14T14:26:20.387Z,88.37
2022-12-14T14:28:52.508Z,90.55
2022-12-14T14:31:19.893Z,88.73
2022-12-14T14:33:54.564Z,89.25
2022-12-14T14:36:24.786Z,91.04
2022-12-14T14:38:52.714Z,89.04
2022-12-14T14:41:23.817Z,88.68
2022-12-14T14:43:53.934Z,88.98
2022-12-14T14:46:31.568Z,89.41
2022-12-14T14:49:00.482Z,91.19
2022-12-14T14:51:29.690Z,89.08
2022-12-14T14:57:33.249Z,88.81
2022-12-14T15:00:02.578Z,89.48
2022-12-14T15:02:33.885Z,89.27
2022-12-14T15:05:41.053Z,89.67
2022-12-14T15:07:53.660Z,89.80
2022-12-14T15:10:28.329Z,90.76
2022-12-14T15:12:59.525Z,90.17
2022-12-14T15:15:34.788Z,90.47
2022-12-14T15:18:15.366Z,89.33
2022-12-14T15:20:53.327Z,89.36
2022-12-14T15:23:21.132Z,89.44
2022-12-14T15:25:56.477Z,89.46
2022-12-14T15:28:24.430Z,89.33
2022-12-14T15:30:51.137Z,89.24
2022-12-14T15:33:25.117Z,90.46
2022-12-14T15:35:53.223Z,90.36
2022-12-14T15:38:24.556Z,91.34
2022-12-14T15:40:55.740Z,90.02
2022-12-14T15:43:24.132Z,89.96
2022-12-14T15:45:55.951Z,89.81
2022-12-14T15:48:24.657Z,89.83
2022-12-14T15:50:54.447Z,89.47
2022-12-14T15:53:29.002Z,89.32
2022-12-14T15:56:02.971Z,89.11
2022-12-14T15:58:34.673Z,89.62
2022-12-14T16:01:17.432Z,89.46
2022-12-14T16:03:47.279Z,89.77
2022-12-14T16:06:17.810Z,89.43
2022-12-14T16:08:50.234Z,89.72
2022-12-14T16:11:23.166Z,89.54
2022-12-14T16:13:50.070Z,89.16
2022-12-14T16:16:17.054Z,89.52
2022-12-14T16:18:50.640Z,89.44
2022-12-14T16:21:28.808Z,89.23
2022-12-14T16:23:56.487Z,89.19
2022-12-14T16:26:25.942Z,88.84
2022-12-14T16:29:18.284Z,88.93
2022-12-14T16:31:45.196Z,89.46
2022-12-14T16:34:17.006Z,89.38
2022-12-14T16:37:08.067Z,89.38
2022-12-14T16:39:38.699Z,89.41
2022-12-14T16:42:07.480Z,89.48
2022-12-14T16:44:37.110Z,88.69
2022-12-14T16:47:26.089Z,89.21
2022-12-14T16:49:59.780Z,89.14
2022-12-14T16:52:30.309Z,89.18
2022-12-14T16:55:12.036Z,89.02
2022-12-14T16:57:41.267Z,88.89
2022-12-14T17:00:20.641Z,89.19
2022-12-14T17:02:55.168Z,88.75
2022-12-14T17:05:23.537Z,88.96
2022-12-14T17:07:51.647Z,88.83
2022-12-14T17:10:21.143Z,88.70
2022-12-14T17:12:49.000Z,88.71
2022-12-14T17:15:16.421Z,88.97
2022-12-14T17:17:43.878Z,88.46
2022-12-14T17:20:21.183Z,88.82
2022-12-14T17:22:49.353Z,88.81
2022-12-14T17:25:18.558Z,88.70
2022-12-14T17:27:45.619Z,88.71
2022-12-14T17:30:15.506Z,88.78
2022-12-14T17:32:42.788Z,88.60
2022-12-14T17:35:15.619Z,88.69
2022-12-14T17:37:42.472Z,88.35
2022-12-14T17:40:10.054Z,88.46
2022-12-14T17:42:39.171Z,88.17
2022-12-14T17:45:07.399Z,88.00
2022-12-14T17:47:33.935Z,88.46
2022-12-14T17:50:00.568Z,88.30
2022-12-14T17:52:29.061Z,88.65
2022-12-14T17:54:55.624Z,88.51
2022-12-14T17:57:24.233Z,88.26
2022-12-14T18:00:15.220Z,88.63
2022-12-14T18:02:42.293Z,88.31
2022-12-14T18:05:17.360Z,87.94
2022-12-14T18:07:43.884Z,88.49
2022-12-14T18:10:14.077Z,88.39
2022-12-14T18:12:41.366Z,88.27
2022-12-14T18:15:16.991Z,89.21
2022-12-14T18:17:43.610Z,88.59
2022-12-14T18:20:11.675Z,88.31
2022-12-14T18:22:38.922Z,89.19
2022-12-14T18:25:21.361Z,88.36
2022-12-14T18:27:49.371Z,88.51
2022-12-14T18:30:17.304Z,89.07
2022-12-14T18:32:43.925Z,89.80
2022-12-14T18:35:16.902Z,90.42
2022-12-14T18:37:43.517Z,89.08
2022-12-14T18:40:18.204Z,88.51
2022-12-14T18:42:45.407Z,88.12
2022-12-14T18:45:17.427Z,88.13
2022-12-14T18:47:44.172Z,88.67
2022-12-14T18:50:11.842Z,90.06
2022-12-14T18:52:38.398Z,88.94
2022-12-14T18:55:05.976Z,88.09
2022-12-14T18:57:32.605Z,88.16
2022-12-14T18:59:59.806Z,87.91
2022-12-14T19:02:28.762Z,88.07
2022-12-14T19:04:56.302Z,87.99
2022-12-14T19:07:22.851Z,87.76
2022-12-14T19:09:49.369Z,87.79
2022-12-14T19:12:15.954Z,87.92
2022-12-14T19:14:42.543Z,88.19
2022-12-14T19:17:09.122Z,87.91
2022-12-14T19:19:42.663Z,87.49
2022-12-14T19:22:11.065Z,87.27
2022-12-14T19:24:37.597Z,87.91
2022-12-14T19:27:04.357Z,88.82
2022-12-14T19:29:30.922Z,88.02
2022-12-14T19:32:03.371Z,87.77
2022-12-14T19:34:32.030Z,87.90
2022-12-14T19:36:59.961Z,87.72
2022-12-14T19:39:26.519Z,87.89
2022-12-14T19:41:54.154Z,87.59
2022-12-14T19:44:20.758Z,87.36
2022-12-14T19:46:48.144Z,87.04
2022-12-14T19:49:16.581Z,87.31
2022-12-14T19:51:43.178Z,87.80
2022-12-14T19:54:11.963Z,88.73
2022-12-14T19:56:38.608Z,88.06
2022-12-14T19:59:05.175Z,87.85
2022-12-14T20:01:35.167Z,87.67
2022-12-14T20:04:01.842Z,87.40
2022-12-14T20:06:28.481Z,87.42
2022-12-14T20:08:57.578Z,87.18
2022-12-14T20:11:25.848Z,86.82
2022-12-14T20:13:57.408Z,87.20
2022-12-14T20:16:27.736Z,86.78
2022-12-14T20:18:54.386Z,87.02
2022-12-14T20:21:22.519Z,87.06
2022-12-14T20:23:49.771Z,87.42
2022-12-14T20:26:18.344Z,87.02
2022-12-14T20:28:49.151Z,87.28
2022-12-14T20:31:16.276Z,86.90
2022-12-14T20:33:43.723Z,87.06
2022-12-14T20:36:10.983Z,87.46
2022-12-14T20:38:37.655Z,87.16
2022-12-14T20:41:05.819Z,87.18
2022-12-14T20:43:36.972Z,86.99
2022-12-14T20:46:05.594Z,86.87
2022-12-14T20:48:32.870Z,86.97
2022-12-14T20:51:00.806Z,86.80
2022-12-14T20:53:27.622Z,87.27
2022-12-14T20:55:54.313Z,87.04
2022-12-14T20:58:20.962Z,88.83
2022-12-14T21:00:47.602Z,88.22
2022-12-14T21:03:15.672Z,87.16
2022-12-14T21:05:43.365Z,87.63
2022-12-14T21:08:09.968Z,87.27
2022-12-14T21:10:36.548Z,88.70
2022-12-14T21:13:07.666Z,88.46
2022-12-14T21:15:35.350Z,87.65
2022-12-14T21:18:02.404Z,87.14
2022-12-14T21:20:30.332Z,86.86
2022-12-14T21:22:57.382Z,86.61
2022-12-14T21:25:23.955Z,86.57
2022-12-14T21:27:50.522Z,87.04
2022-12-14T21:30:17.254Z,86.84
2022-12-14T21:32:43.858Z,86.87
2022-12-14T21:35:10.545Z,87.20
2022-12-14T21:37:38.979Z,87.16
2022-12-14T21:40:07.237Z,87.04
2022-12-14T21:42:33.762Z,87.80
2022-12-14T21:45:00.434Z,87.72
2022-12-14T21:47:28.910Z,88.12
2022-12-14T21:49:56.744Z,88.45
2022-12-14T21:52:27.997Z,88.45
2022-12-14T21:54:58.671Z,88.76
2022-12-14T21:57:50.529Z,88.79
2022-12-14T22:00:17.891Z,89.26
2022-12-14T22:02:44.578Z,89.22
2022-12-14T22:05:11.337Z,89.45
2022-12-14T22:07:37.906Z,89.21
2022-12-14T22:10:06.700Z,89.38
2022-12-14T22:12:33.277Z,89.25
2022-12-14T22:14:59.841Z,89.66
2022-12-14T22:17:26.383Z,89.93
2022-12-14T22:19:55.268Z,89.84
2022-12-14T22:22:22.365Z,89.30
2022-12-14T22:24:49.843Z,90.30
2022-12-14T22:27:18.347Z,90.23
2022-12-14T22:29:45.020Z,89.89
2022-12-14T22:32:12.452Z,90.02
2022-12-14T22:34:39.123Z,89.95
2022-12-14T22:37:05.675Z,89.12
2022-12-14T22:39:32.265Z,89.40
2022-12-14T22:41:58.789Z,89.99
2022-12-14T22:44:26.936Z,90.45
2022-12-14T22:46:53.513Z,90.49
2022-12-14T22:49:20.269Z,90.60
2022-12-14T22:51:47.531Z,90.77
2022-12-14T22:54:18.046Z,90.86
2022-12-14T22:56:47.781Z,91.03
2022-12-14T22:59:16.297Z,90.68
2022-12-14T23:01:49.605Z,90.93
2022-12-14T23:04:17.538Z,90.57
2022-12-14T23:06:44.805Z,91.01
2022-12-14T23:09:30.129Z,91.16
2022-12-14T23:12:21.234Z,91.07
2022-12-14T23:15:07.288Z,91.08
2022-12-14T23:17:54.350Z,91.44
2022-12-14T23:20:39.932Z,91.31
2022-12-14T23:23:25.781Z,91.15
2022-12-14T23:26:11.080Z,91.40
2022-12-14T23:28:56.399Z,91.50
2022-12-14T23:31:41.758Z,91.60
2022-12-14T23:34:28.443Z,91.54
2022-12-14T23:37:19.789Z,90.65
2022-12-14T23:40:05.728Z,89.76
2022-12-14T23:42:50.958Z,91.43
2022-12-14T23:45:36.253Z,91.92
2022-12-14T23:48:21.576Z,91.60
2022-12-14T23:51:08.114Z,91.51
2022-12-14T23:53:53.484Z,91.72
2022-12-14T23:56:38.728Z,91.97
2022-12-14T23:59:29.794Z,91.76
